1996 ITELLE (1996098S13085)


On this page: IBTrACS data - Map and Plots - Positions - Intensities - Original source data

Summary

Start Apr 6
End Apr 19
Basin SI
LMI 140 kt
Sources jtwc_sh
reunion
neumann
In WMO? Yes
Previous storm 1996 OLIVIA (SI)
Previous in basin 1996 OLIVIA (SI)
Concurrent storms 1996 ANN (WP)
1996 HANSELLA (SI)
1996 OLIVIA (SI)
1996 ITELLE (SI)
1996 HSK2796 (SI)
Next in basin 1996 HSK2796 (SI)
Next storm 1996 HSK2796 (SI)

top of page IBTrACS Data: File Access

top of page HURSAT Data: File Access

Image of storm

top of page Plots:

Map of storm track will not appear if FTP is down
Time series of cyclone Maximum Sustained Wind will not appear if FTP is down
Time series of cyclone Minimum Central Pressure will not appear if FTP is down

top of page Track Data:Position

jtwc_sh reunion neumann
Date Lat Lon Lat Lon Lat Lon
1996-04-06 12:00:00 -12.8 85.1 -12.8 85.1
1996-04-06 18:00:00 -12.7 84.7 -12.5 84.6 -12.7 84.7
1996-04-07 00:00:00 -12.8 84.2 -12.6 84.1 -12.8 84.2
1996-04-07 06:00:00 -13.0 83.6 -12.7 83.7 -13.0 83.6
1996-04-07 12:00:00 -13.4 82.7 -12.8 83.2 -13.4 82.7
1996-04-07 18:00:00 -13.8 81.7 -13.0 82.6 -13.8 81.7
1996-04-08 00:00:00 -14.2 80.6 -13.1 82.0 -14.2 80.6
1996-04-08 06:00:00 -14.2 79.5 -13.2 81.4 -14.2 79.5
1996-04-08 12:00:00 -14.0 78.6 -13.3 80.7 -14.0 78.6
1996-04-08 18:00:00 -13.8 78.1 -13.3 79.7 -13.8 78.1
1996-04-09 00:00:00 -13.7 77.6 -13.3 78.8 -13.7 77.6
1996-04-09 06:00:00 -13.6 77.1 -13.3 77.9 -13.6 77.1
1996-04-09 12:00:00 -13.4 76.6 -13.3 77.0 -13.4 76.6
1996-04-09 18:00:00 -13.2 75.8 -13.3 76.2 -13.2 75.8
1996-04-10 00:00:00 -13.1 75.0 -13.2 75.2 -13.1 75.0
1996-04-10 06:00:00 -13.0 74.1 -13.2 74.3 -13.0 74.1
1996-04-10 12:00:00 -13.0 73.1 -13.1 73.6 -13.0 73.1
1996-04-10 18:00:00 -13.1 72.2 -13.1 72.8 -13.1 72.2
1996-04-11 00:00:00 -13.1 71.5 -13.1 71.8 -13.1 71.5
1996-04-11 06:00:00 -13.2 71.0 -13.2 70.9 -13.2 71.0
1996-04-11 12:00:00 -13.3 70.5 -13.4 70.4 -13.3 70.5
1996-04-11 18:00:00 -13.5 70.0 -13.6 70.2 -13.5 70.0
1996-04-12 00:00:00 -13.6 69.6 -13.9 69.4 -13.6 69.6
1996-04-12 06:00:00 -13.8 68.9 -14.1 68.8 -13.8 68.9
1996-04-12 12:00:00 -14.0 68.3 -14.2 68.3 -14.0 68.3
jtwc_sh reunion neumann
1996-04-12 18:00:00 -14.2 67.6 -14.3 67.7 -14.2 67.6
1996-04-13 00:00:00 -14.4 66.9 -14.5 66.9 -14.4 66.9
1996-04-13 06:00:00 -14.5 66.1 -14.5 66.0 -14.5 66.1
1996-04-13 12:00:00 -14.6 65.3 -14.6 65.3 -14.6 65.3
1996-04-13 18:00:00 -14.8 64.3 -14.8 64.5 -14.8 64.3
1996-04-14 00:00:00 -15.0 63.5 -15.1 63.5 -15.0 63.5
1996-04-14 06:00:00 -15.3 62.7 -15.4 62.7 -15.3 62.7
1996-04-14 12:00:00 -15.7 62.0 -15.7 61.9 -15.7 62.0
1996-04-14 18:00:00 -16.0 61.3 -15.9 61.1 -16.0 61.3
1996-04-15 00:00:00 -16.4 60.4 -16.3 60.4 -16.4 60.4
1996-04-15 06:00:00 -16.9 59.5 -16.8 59.4 -16.9 59.5
1996-04-15 12:00:00 -17.3 58.6 -17.1 58.5 -17.3 58.6
1996-04-15 18:00:00 -17.4 57.8 -17.3 57.7 -17.4 57.8
1996-04-16 00:00:00 -17.4 57.4 -17.3 57.1 -17.4 57.4
1996-04-16 06:00:00 -17.4 57.2 -17.3 56.5 -17.4 57.2
1996-04-16 12:00:00 -17.5 56.9 -17.4 56.1 -17.5 56.9
1996-04-16 18:00:00 -17.5 56.4 -17.4 56.0 -17.5 56.4
1996-04-17 00:00:00 -17.4 55.9 -17.4 55.8 -17.4 55.9
1996-04-17 06:00:00 -17.3 55.3 -17.4 55.4 -17.3 55.3
1996-04-17 12:00:00 -16.9 54.7 -17.2 54.8 -16.9 54.7
1996-04-17 18:00:00 -16.7 54.2 -16.9 54.4 -16.7 54.2
1996-04-18 00:00:00 -16.5 53.7 -16.7 53.9 -16.5 53.7
1996-04-18 06:00:00 -16.3 53.1 -16.3 53.3 -16.3 53.1
1996-04-18 12:00:00 -16.2 52.6 -16.1 52.7 -16.2 52.6
jtwc_sh reunion neumann
1996-04-18 18:00:00 -16.0 52.1
1996-04-19 00:00:00 -15.9 51.7

top of pageTrack Data:Intensity

jtwc_sh reunion neumann
Date Wind Pres Wind Pres Wind Pres
1996-04-06 12:00:00 20. 20.
1996-04-06 18:00:00 20. 15. 1004. 20.
1996-04-07 00:00:00 20. 15. 1004. 20.
1996-04-07 06:00:00 20. 15. 1004. 20.
1996-04-07 12:00:00 20. 20. 1002. 20.
1996-04-07 18:00:00 25. 20. 1002. 25.
1996-04-08 00:00:00 25. 20. 1002. 25.
1996-04-08 06:00:00 25. 25. 1000. 25.
1996-04-08 12:00:00 30. 25. 1000. 30.
1996-04-08 18:00:00 35. 28. 998. 35.
1996-04-09 00:00:00 35. 28. 998. 35.
1996-04-09 06:00:00 35. 30. 995. 35.
1996-04-09 12:00:00 35. 35. 992. 35.
1996-04-09 18:00:00 40. 40. 988. 40.
1996-04-10 00:00:00 45. 45. 984. 45.
1996-04-10 06:00:00 50. 45. 984. 50.
1996-04-10 12:00:00 55. 55. 975. 55.
1996-04-10 18:00:00 60. 65. 965. 60.
1996-04-11 00:00:00 70. 70. 955. 70.
1996-04-11 06:00:00 80. 80. 945. 80.
1996-04-11 12:00:00 90. 80. 945. 90.
1996-04-11 18:00:00 95. 85. 935. 95.
1996-04-12 00:00:00 100. 90. 930. 100.
1996-04-12 06:00:00 105. 90. 930. 105.
1996-04-12 12:00:00 110. 95. 925. 110.
jtwc_sh reunion neumann
1996-04-12 18:00:00 115. 95. 925. 115.
1996-04-13 00:00:00 120. 95. 925. 120.
1996-04-13 06:00:00 125. 95. 925. 125.
1996-04-13 12:00:00 130. 95. 925. 130.
1996-04-13 18:00:00 135. 90. 930. 135.
1996-04-14 00:00:00 140. 85. 935. 140.
1996-04-14 06:00:00 140. 80. 945. 140.
1996-04-14 12:00:00 140. 80. 945. 140.
1996-04-14 18:00:00 130. 80. 945. 130.
1996-04-15 00:00:00 115. 75. 950. 115.
1996-04-15 06:00:00 95. 65. 965. 95.
1996-04-15 12:00:00 85. 55. 975. 85.
1996-04-15 18:00:00 75. 55. 975. 75.
1996-04-16 00:00:00 65. 55. 975. 65.
1996-04-16 06:00:00 65. 55. 975. 65.
1996-04-16 12:00:00 55. 50. 980. 55.
1996-04-16 18:00:00 50. 50. 980. 50.
1996-04-17 00:00:00 45. 45. 984. 45.
1996-04-17 06:00:00 45. 45. 984. 45.
1996-04-17 12:00:00 40. 40. 988. 40.
1996-04-17 18:00:00 35. 35. 992. 35.
1996-04-18 00:00:00 30. 30. 995. 30.
1996-04-18 06:00:00 30. 25. 998. 30.
1996-04-18 12:00:00 25. 25. 1000. 25.
jtwc_sh reunion neumann
1996-04-18 18:00:00 20. 1002.
1996-04-19 00:00:00 20. 1004.

top of page Links to source data

Source Source file Format
jtwc_sh bsh261996.txt ATCF
reunion WMO-Best-Tracks.txt:Line=17494:itelle WMO (old format)
neumann tracks.sh:Storm=1062:ITELLE:BSH261996:JTWC HURDAT